Time;durP1;ratioP1;P1;durP2;ratioP2;P2;SDS_P1;SDS_P2;PMS_P1;PMS_P2;Temp;Humidity;BMP_temperature;BMP_pressure;BME280_temperature;BME280_humidity;BME280_pressure;Samples;Min_cycle;Max_cycle;Signal;HPM_P1;HPM_P2
2021/06/12 00:00:58;;;;;;;2.83;2.63;;;24.80;56.60;;;;;;5092585;28;20574;-63
2021/06/12 00:03:24;;;;;;;2.63;2.42;;;24.80;56.60;;;;;;5091993;28;20231;-64
2021/06/12 00:05:49;;;;;;;3.42;2.97;;;24.80;56.60;;;;;;5092527;28;20624;-64
2021/06/12 00:08:15;;;;;;;3.83;3.03;;;24.80;56.60;;;;;;5074356;28;20178;-64
2021/06/12 00:10:41;;;;;;;2.70;2.50;;;24.70;56.60;;;;;;5091806;28;20183;-63
2021/06/12 00:13:07;;;;;;;3.22;2.60;;;24.70;56.60;;;;;;5093045;28;20181;-63
2021/06/12 00:15:34;;;;;;;2.58;2.25;;;24.70;56.60;;;;;;5092480;28;20189;-63
2021/06/12 00:18:27;;;;;;;2.50;2.30;;;24.70;56.60;;;;;;5091659;28;20229;-63
2021/06/12 00:20:55;;;;;;;2.50;2.30;;;24.70;56.60;;;;;;5078404;28;20205;-63
2021/06/12 00:23:21;;;;;;;2.78;2.50;;;24.70;56.60;;;;;;5092568;28;20526;-63
2021/06/12 00:25:48;;;;;;;2.83;2.35;;;24.70;56.70;;;;;;5091199;28;20202;-62
2021/06/12 00:28:13;;;;;;;2.42;2.22;;;24.70;56.70;;;;;;5074791;28;20177;-63
2021/06/12 00:30:39;;;;;;;3.15;2.85;;;24.70;56.70;;;;;;5092501;28;20192;-63
2021/06/12 00:33:05;;;;;;;2.60;2.40;;;24.70;56.70;;;;;;5096258;28;20639;-63
2021/06/12 00:35:30;;;;;;;2.63;2.42;;;24.70;56.70;;;;;;5095701;28;20185;-63
2021/06/12 00:37:56;;;;;;;2.28;2.10;;;24.70;57.30;;;;;;5095282;28;20177;-63
2021/06/12 00:40:21;;;;;;;2.85;2.65;;;24.70;56.70;;;;;;5096201;28;20174;-63
2021/06/12 00:42:47;;;;;;;2.53;2.33;;;24.70;56.70;;;;;;5095808;28;20194;-63
2021/06/12 00:45:20;;;;;;;2.50;2.30;;;24.70;56.70;;;;;;5095399;28;20619;-63
2021/06/12 00:47:59;;;;;;;2.72;2.53;;;24.70;56.70;;;;;;5095551;28;20197;-63
2021/06/12 00:50:28;;;;;;;2.42;2.25;;;24.60;56.70;;;;;;5095755;28;20173;-63
2021/06/12 00:52:54;;;;;;;2.42;2.22;;;24.60;56.70;;;;;;5094644;28;20662;-64
2021/06/12 00:55:19;;;;;;;2.60;2.40;;;24.60;56.70;;;;;;5095828;28;20185;-62
2021/06/12 00:57:45;;;;;;;2.63;2.30;;;24.60;56.70;;;;;;5077367;28;20532;-63
2021/06/12 01:00:12;;;;;;;3.03;2.38;;;24.60;56.70;;;;;;5076681;28;20173;-63
2021/06/12 01:02:38;;;;;;;2.42;2.22;;;24.60;56.70;;;;;;5095082;28;20682;-63
2021/06/12 01:05:05;;;;;;;2.47;2.28;;;24.60;56.70;;;;;;5096027;28;20197;-64
2021/06/12 01:07:31;;;;;;;2.53;2.08;;;24.60;56.70;;;;;;5076675;28;20184;-63
2021/06/12 01:09:56;;;;;;;2.65;2.45;;;24.60;56.70;;;;;;5095600;28;20536;-64
2021/06/12 01:12:25;;;;;;;2.35;2.15;;;24.60;56.70;;;;;;5095286;28;20632;-63
2021/06/12 01:14:56;;;;;;;2.38;2.17;;;24.60;56.70;;;;;;5076424;28;20234;-63
2021/06/12 01:17:27;;;;;;;3.03;2.35;;;24.60;56.70;;;;;;5077070;28;20706;-63
2021/06/12 01:20:22;;;;;;;2.50;2.30;;;24.60;56.80;;;;;;5077045;28;20189;-63
2021/06/12 01:22:48;;;;;;;2.15;2.05;;;24.70;56.80;;;;;;5055571;28;20304;-63
2021/06/12 01:25:44;;;;;;;2.20;1.92;;;24.60;56.80;;;;;;5094989;28;20604;-63
2021/06/12 01:28:50;;;;;;;2.30;2.20;;;24.60;56.80;;;;;;5077119;28;20181;-63
2021/06/12 01:31:17;;;;;;;2.58;2.38;;;24.60;56.80;;;;;;5095117;28;20259;-63
2021/06/12 01:33:43;;;;;;;2.28;2.08;;;24.60;56.80;;;;;;5076988;28;20536;-64
2021/06/12 01:36:08;;;;;;;2.35;2.15;;;24.60;56.80;;;;;;5076108;28;20169;-63
2021/06/12 01:38:36;;;;;;;2.05;1.90;;;24.50;56.80;;;;;;5076278;28;20209;-63
2021/06/12 01:41:03;;;;;;;2.00;1.90;;;24.50;56.80;;;;;;5093959;28;20289;-63
2021/06/12 01:43:29;;;;;;;2.22;2.03;;;24.60;56.90;;;;;;5094597;28;20670;-63
2021/06/12 01:45:55;;;;;;;2.47;2.28;;;24.50;56.80;;;;;;5094742;28;20651;-63
2021/06/12 01:48:26;;;;;;;2.08;1.98;;;24.50;56.80;;;;;;5075942;28;20196;-63
2021/06/12 01:50:52;;;;;;;2.15;1.95;;;24.50;56.80;;;;;;5076983;28;20259;-63
2021/06/12 01:53:19;;;;;;;1.83;1.73;;;24.60;56.90;;;;;;5076800;28;20621;-63
2021/06/12 01:55:45;;;;;;;2.05;1.90;;;24.50;56.90;;;;;;5075366;28;20182;-63
2021/06/12 01:58:16;;;;;;;2.15;2.05;;;24.50;56.90;;;;;;5076512;28;20178;-63
2021/06/12 02:00:41;;;;;;;2.25;2.05;;;24.50;56.90;;;;;;5076209;28;20184;-63
2021/06/12 02:03:07;;;;;;;2.10;2.00;;;24.50;56.90;;;;;;5075971;28;20186;-63
2021/06/12 02:05:32;;;;;;;2.50;2.30;;;24.50;56.90;;;;;;5075922;28;20162;-63
2021/06/12 02:07:58;;;;;;;2.10;2.00;;;24.50;56.90;;;;;;5076443;28;20178;-63
2021/06/12 02:10:25;;;;;;;2.88;2.20;;;24.50;56.90;;;;;;5093564;28;20170;-63
2021/06/12 02:12:51;;;;;;;2.50;2.30;;;24.50;56.90;;;;;;5076139;28;20203;-63
2021/06/12 02:15:17;;;;;;;1.90;1.80;;;24.50;56.90;;;;;;5094021;28;20181;-63
2021/06/12 02:17:43;;;;;;;2.00;1.90;;;24.50;56.90;;;;;;5074890;28;20225;-63
2021/06/12 02:20:18;;;;;;;2.38;2.17;;;24.50;56.90;;;;;;5076177;28;20166;-63
2021/06/12 02:22:45;;;;;;;2.78;2.33;;;24.50;56.90;;;;;;5093881;28;20220;-63
2021/06/12 02:25:11;;;;;;;2.70;2.13;;;24.50;56.90;;;;;;5075441;28;20182;-63
2021/06/12 02:27:37;;;;;;;1.95;1.85;;;24.50;56.90;;;;;;5075531;28;20183;-63
2021/06/12 02:30:06;;;;;;;1.90;1.80;;;24.50;56.90;;;;;;5075259;28;20169;-63
2021/06/12 02:32:36;;;;;;;1.92;1.77;;;24.50;56.90;;;;;;5093654;28;20174;-63
2021/06/12 02:35:04;;;;;;;1.98;1.88;;;24.50;56.90;;;;;;5093962;28;20182;-63
2021/06/12 02:37:29;;;;;;;2.15;2.05;;;24.50;56.90;;;;;;5093078;28;20223;-63
2021/06/12 02:39:55;;;;;;;2.28;2.05;;;24.50;56.90;;;;;;5075690;28;20564;-63
2021/06/12 02:42:20;;;;;;;2.33;2.10;;;24.50;57.00;;;;;;5093614;28;20213;-63
2021/06/12 02:44:46;;;;;;;2.00;1.90;;;24.50;56.90;;;;;;5092794;28;20205;-63
2021/06/12 02:47:12;;;;;;;2.28;2.08;;;24.40;57.00;;;;;;5075326;28;20174;-63
2021/06/12 02:49:38;;;;;;;2.28;2.10;;;24.40;57.60;;;;;;5075157;28;20184;-63
2021/06/12 02:52:05;;;;;;;1.80;1.70;;;24.50;57.00;;;;;;5074840;28;20177;-63
2021/06/12 02:54:31;;;;;;;2.05;1.95;;;24.40;56.90;;;;;;5074651;28;20181;-63
2021/06/12 02:56:56;;;;;;;1.88;1.77;;;24.40;56.90;;;;;;5075451;28;20174;-63
2021/06/12 02:59:22;;;;;;;1.98;1.80;;;24.40;57.00;;;;;;5074627;28;20191;-63
2021/06/12 03:01:47;;;;;;;2.28;2.08;;;24.40;56.90;;;;;;5093153;28;20209;-63
2021/06/12 03:04:14;;;;;;;1.88;1.67;;;24.40;57.00;;;;;;5075531;28;20227;-63
2021/06/12 03:06:40;;;;;;;2.25;2.05;;;24.40;57.00;;;;;;5074339;28;20178;-63
2021/06/12 03:09:05;;;;;;;1.98;1.88;;;24.40;57.00;;;;;;5075377;28;20258;-63
2021/06/12 03:11:31;;;;;;;1.90;1.80;;;24.40;57.00;;;;;;5074949;28;20181;-63
2021/06/12 03:13:56;;;;;;;2.00;1.90;;;24.40;57.00;;;;;;5074446;28;20549;-63
2021/06/12 03:16:22;;;;;;;2.25;2.15;;;24.40;57.00;;;;;;5058358;28;20223;-63
2021/06/12 03:18:48;;;;;;;2.13;1.92;;;24.40;57.00;;;;;;5071187;28;20283;-63
2021/06/12 03:21:24;;;;;;;2.13;2.03;;;24.40;57.00;;;;;;5071056;28;20217;-63
2021/06/12 03:23:52;;;;;;;2.00;1.90;;;24.40;57.00;;;;;;5072518;28;20648;-62
2021/06/12 03:26:18;;;;;;;2.03;1.90;;;24.40;57.10;;;;;;5072135;28;20166;-63
2021/06/12 03:28:44;;;;;;;1.95;1.73;;;24.10;56.90;;;;;;5071166;28;20182;-63
2021/06/12 03:31:10;;;;;;;3.03;2.30;;;24.30;57.00;;;;;;5071763;28;20200;-64
2021/06/12 03:33:35;;;;;;;1.75;1.65;;;24.40;57.00;;;;;;5070616;28;20212;-63
2021/06/12 03:36:01;;;;;;;1.95;1.85;;;24.30;57.00;;;;;;5071803;28;20210;-63
2021/06/12 03:38:27;;;;;;;2.03;1.92;;;24.40;57.10;;;;;;5072794;28;20167;-63
2021/06/12 03:40:52;;;;;;;2.33;2.10;;;24.40;57.10;;;;;;5070449;28;20232;-63
2021/06/12 03:43:18;;;;;;;1.95;1.85;;;24.30;57.00;;;;;;5071373;28;20714;-63
2021/06/12 03:45:43;;;;;;;1.85;1.75;;;24.30;57.00;;;;;;5071423;28;20690;-63
2021/06/12 03:48:10;;;;;;;2.10;2.00;;;24.30;57.00;;;;;;5070858;28;20175;-63
2021/06/12 03:50:36;;;;;;;2.17;2.08;;;24.30;57.00;;;;;;5071290;28;20261;-63
2021/06/12 03:53:03;;;;;;;2.05;1.95;;;24.30;57.00;;;;;;5071433;28;20219;-63
2021/06/12 03:55:28;;;;;;;1.88;1.67;;;24.30;57.60;;;;;;5071128;28;20171;-63
2021/06/12 03:57:54;;;;;;;2.97;2.05;;;24.30;57.00;;;;;;5070848;28;20545;-63
2021/06/12 04:00:19;;;;;;;2.40;2.17;;;24.30;57.00;;;;;;5071343;28;20197;-63
2021/06/12 04:02:45;;;;;;;1.90;1.80;;;24.30;57.10;;;;;;5071078;28;20218;-63
2021/06/12 04:05:11;;;;;;;2.50;1.88;;;24.30;57.00;;;;;;5072569;28;20525;-64
2021/06/12 04:07:37;;;;;;;2.22;1.95;;;24.30;57.00;;;;;;5076236;28;20659;-63
2021/06/12 04:10:04;;;;;;;1.90;1.80;;;24.30;57.00;;;;;;5075571;28;20217;-63
2021/06/12 04:12:29;;;;;;;2.05;1.95;;;24.30;57.10;;;;;;5075831;28;20178;-62
2021/06/12 04:14:58;;;;;;;2.40;2.20;;;24.30;57.00;;;;;;5076244;28;20184;-63
2021/06/12 04:17:30;;;;;;;2.33;2.13;;;24.30;57.00;;;;;;5078306;28;20629;-63
2021/06/12 04:19:56;;;;;;;2.30;2.10;;;24.30;57.10;;;;;;5078855;28;20174;-62
2021/06/12 04:22:43;;;;;;;2.58;2.30;;;24.30;57.10;;;;;;5077523;28;20228;-63
2021/06/12 04:25:12;;;;;;;2.28;2.08;;;24.30;57.00;;;;;;5095745;28;20166;-63
2021/06/12 04:27:39;;;;;;;2.15;2.00;;;24.30;57.00;;;;;;5094607;28;20188;-62
2021/06/12 04:30:05;;;;;;;2.60;2.28;;;24.30;57.10;;;;;;5095720;28;20182;-63
2021/06/12 04:32:30;;;;;;;2.05;1.90;;;24.30;57.10;;;;;;5095827;28;20173;-63
2021/06/12 04:34:56;;;;;;;2.05;1.90;;;24.30;57.10;;;;;;5096074;28;20231;-63
2021/06/12 04:37:21;;;;;;;2.45;2.20;;;24.30;57.10;;;;;;5095180;28;20174;-63
2021/06/12 04:39:47;;;;;;;2.58;2.10;;;24.30;57.00;;;;;;5095816;28;20166;-63
2021/06/12 04:42:13;;;;;;;1.95;1.85;;;24.30;57.10;;;;;;5096014;28;20541;-63
2021/06/12 04:44:38;;;;;;;2.25;2.05;;;24.30;57.10;;;;;;5094644;28;20513;-63
2021/06/12 04:47:04;;;;;;;2.47;1.90;;;24.30;57.10;;;;;;5095963;28;20654;-63
2021/06/12 04:49:29;;;;;;;2.85;2.30;;;24.30;57.10;;;;;;5095468;28;20169;-63
2021/06/12 04:51:55;;;;;;;2.05;1.90;;;24.30;57.10;;;;;;5095047;28;20177;-63
2021/06/12 04:54:20;;;;;;;2.30;2.10;;;24.30;57.10;;;;;;5095768;28;20170;-63
2021/06/12 04:56:46;;;;;;;2.35;2.15;;;24.30;57.10;;;;;;5095494;28;20173;-63
2021/06/12 04:59:11;;;;;;;2.03;1.92;;;24.30;57.10;;;;;;5094900;28;20174;-62
2021/06/12 05:01:37;;;;;;;2.50;2.25;;;24.30;57.10;;;;;;5095341;28;20240;-62
2021/06/12 05:04:05;;;;;;;2.40;2.20;;;24.20;57.20;;;;;;5095687;28;20269;-63
2021/06/12 05:06:31;;;;;;;2.80;2.42;;;24.20;57.10;;;;;;5094357;28;20197;-63
2021/06/12 05:08:56;;;;;;;3.40;2.60;;;24.30;57.20;;;;;;5095591;28;20174;-63
2021/06/12 05:11:22;;;;;;;2.80;2.38;;;24.20;57.10;;;;;;5095293;28;20177;-63
2021/06/12 05:13:47;;;;;;;2.65;2.45;;;24.20;57.10;;;;;;5094533;28;20581;-62
2021/06/12 05:16:22;;;;;;;3.80;2.83;;;24.20;57.10;;;;;;5094766;28;20246;-63
2021/06/12 05:18:47;;;;;;;2.22;2.03;;;24.30;57.20;;;;;;5076708;28;20312;-63
2021/06/12 05:21:13;;;;;;;2.70;2.50;;;24.20;57.20;;;;;;5094599;28;20209;-63
2021/06/12 05:23:38;;;;;;;2.50;2.30;;;24.20;57.10;;;;;;5095054;28;20173;-62
2021/06/12 05:26:04;;;;;;;2.88;2.35;;;24.20;57.10;;;;;;5094447;28;20185;-62
2021/06/12 05:28:30;;;;;;;2.50;2.30;;;24.20;57.10;;;;;;5094819;28;20527;-62
2021/06/12 05:30:55;;;;;;;2.55;2.35;;;24.20;57.10;;;;;;5095146;28;20178;-63
2021/06/12 05:33:24;;;;;;;2.60;2.40;;;24.20;57.10;;;;;;5094214;28;20238;-63
2021/06/12 05:35:50;;;;;;;2.90;2.70;;;24.30;57.10;;;;;;5094626;28;20262;-63
2021/06/12 05:38:16;;;;;;;2.53;2.33;;;24.30;57.10;;;;;;5095325;28;20210;-63
2021/06/12 05:40:42;;;;;;;3.28;2.72;;;24.30;57.20;;;;;;5093781;28;20178;-63
2021/06/12 05:43:08;;;;;;;2.95;2.75;;;24.00;57.00;;;;;;5094933;28;20188;-63
2021/06/12 05:45:33;;;;;;;3.08;2.88;;;24.30;57.20;;;;;;5094597;28;20196;-63
2021/06/12 05:47:59;;;;;;;2.97;2.78;;;24.20;57.10;;;;;;5094113;28;20267;-63
2021/06/12 05:50:24;;;;;;;2.92;2.72;;;24.30;57.10;;;;;;5094668;28;20178;-63
2021/06/12 05:52:50;;;;;;;2.90;2.70;;;24.20;57.10;;;;;;5094485;28;20538;-63
2021/06/12 05:55:15;;;;;;;3.03;2.78;;;24.20;57.10;;;;;;5093947;28;20227;-62
2021/06/12 05:57:41;;;;;;;3.20;2.90;;;24.20;57.10;;;;;;5094105;28;20197;-63
2021/06/12 06:00:10;;;;;;;2.78;2.58;;;24.30;57.10;;;;;;5094287;28;20281;-63
2021/06/12 06:02:35;;;;;;;2.90;2.70;;;24.30;57.10;;;;;;5091151;28;20236;-63
2021/06/12 06:05:01;;;;;;;2.83;2.63;;;24.30;57.10;;;;;;5094335;28;20174;-63
2021/06/12 06:07:26;;;;;;;3.00;2.80;;;24.30;57.10;;;;;;5094477;28;20668;-63
2021/06/12 06:09:52;;;;;;;3.10;2.80;;;24.30;57.00;;;;;;5093364;28;20578;-63
2021/06/12 06:12:18;;;;;;;3.30;3.03;;;24.40;57.00;;;;;;5094210;28;20508;-62
2021/06/12 06:14:43;;;;;;;2.90;2.70;;;24.40;57.00;;;;;;5093900;28;20176;-62
2021/06/12 06:17:12;;;;;;;2.80;2.60;;;24.40;57.00;;;;;;5093147;28;20567;-63
2021/06/12 06:19:38;;;;;;;2.90;2.70;;;24.40;56.90;;;;;;5075438;28;20292;-62
2021/06/12 06:22:04;;;;;;;2.92;2.70;;;24.40;56.90;;;;;;5094064;28;20213;-63
2021/06/12 06:24:29;;;;;;;2.53;2.33;;;24.40;56.90;;;;;;5074226;28;20239;-62
2021/06/12 06:26:55;;;;;;;2.95;2.75;;;24.40;56.90;;;;;;5094193;28;20660;-63
2021/06/12 06:29:21;;;;;;;2.83;2.63;;;24.50;56.90;;;;;;5092442;28;20161;-63
2021/06/12 06:31:46;;;;;;;2.97;2.67;;;24.50;56.80;;;;;;5093397;28;20177;-62
2021/06/12 06:34:12;;;;;;;4.07;3.60;;;24.50;56.90;;;;;;5093743;28;20178;-64
2021/06/12 06:36:38;;;;;;;2.78;2.58;;;24.50;57.00;;;;;;5092884;28;20178;-62
2021/06/12 06:39:04;;;;;;;3.42;2.70;;;24.50;56.90;;;;;;5093871;28;20166;-63
2021/06/12 06:41:30;;;;;;;3.03;2.80;;;24.50;56.90;;;;;;5093342;28;20213;-62
2021/06/12 06:43:55;;;;;;;3.03;2.70;;;24.50;56.80;;;;;;5092952;28;20177;-63
2021/06/12 06:46:26;;;;;;;2.90;2.70;;;24.50;56.90;;;;;;5093364;28;20184;-63
2021/06/12 06:48:52;;;;;;;2.75;2.55;;;24.50;56.90;;;;;;5093169;28;20177;-63
2021/06/12 06:51:18;;;;;;;2.95;2.75;;;24.50;56.90;;;;;;5092114;28;20174;-63
2021/06/12 06:53:43;;;;;;;2.58;2.38;;;24.50;56.90;;;;;;5093327;28;20235;-63
2021/06/12 06:56:12;;;;;;;2.83;2.63;;;24.50;56.90;;;;;;5093400;28;20601;-63
2021/06/12 06:58:37;;;;;;;3.15;2.78;;;24.50;56.90;;;;;;5092178;28;20184;-63
2021/06/12 07:01:03;;;;;;;2.92;2.72;;;24.50;56.90;;;;;;5093169;28;20197;-64
2021/06/12 07:03:29;;;;;;;2.72;2.53;;;24.50;56.80;;;;;;5093536;28;20231;-63
2021/06/12 07:05:54;;;;;;;2.35;2.22;;;24.50;56.80;;;;;;5092521;28;20173;-63
2021/06/12 07:08:20;;;;;;;2.92;2.72;;;24.60;56.80;;;;;;5093246;28;20640;-63
2021/06/12 07:10:46;;;;;;;2.63;2.25;;;24.60;56.80;;;;;;5092740;28;20243;-62
2021/06/12 07:13:11;;;;;;;3.10;2.90;;;24.60;56.80;;;;;;5092517;28;20189;-59
2021/06/12 07:15:37;;;;;;;2.60;2.40;;;24.60;56.80;;;;;;5092871;28;20192;-60
2021/06/12 07:18:03;;;;;;;3.47;2.42;;;24.60;56.70;;;;;;5092913;28;20236;-59
2021/06/12 07:20:28;;;;;;;2.25;2.10;;;24.60;56.70;;;;;;5092681;28;20173;-63
2021/06/12 07:22:55;;;;;;;3.30;2.78;;;24.60;56.70;;;;;;5092910;28;20217;-63
2021/06/12 07:25:20;;;;;;;3.00;2.70;;;24.70;56.70;;;;;;5092891;28;20628;-62
2021/06/12 07:27:46;;;;;;;3.00;2.70;;;24.70;56.80;;;;;;5092058;28;20178;-62
2021/06/12 07:30:12;;;;;;;2.92;2.72;;;24.70;56.80;;;;;;5092927;28;20178;-63
2021/06/12 07:32:37;;;;;;;4.05;2.70;;;24.70;56.80;;;;;;5091872;28;20261;-64
2021/06/12 07:35:03;;;;;;;3.80;2.40;;;24.70;56.80;;;;;;5093247;28;20200;-64
2021/06/12 07:37:29;;;;;;;3.15;2.55;;;24.70;56.80;;;;;;5092866;28;20196;-64
2021/06/12 07:39:55;;;;;;;3.08;2.78;;;24.70;56.80;;;;;;5094046;28;20177;-64
2021/06/12 07:42:20;;;;;;;2.67;2.47;;;24.70;56.80;;;;;;5097111;28;20205;-63
2021/06/12 07:44:46;;;;;;;2.63;2.42;;;24.70;56.90;;;;;;5096568;28;20195;-64
2021/06/12 07:47:11;;;;;;;3.03;2.30;;;24.60;56.90;;;;;;5096263;28;20254;-64
2021/06/12 07:49:37;;;;;;;2.88;2.58;;;24.60;56.90;;;;;;5096927;28;20173;-63
2021/06/12 07:52:03;;;;;;;2.75;2.55;;;24.60;56.90;;;;;;5097241;28;20252;-65
2021/06/12 07:54:29;;;;;;;2.50;2.30;;;24.60;56.90;;;;;;5096396;28;20173;-66
2021/06/12 07:56:54;;;;;;;3.80;2.75;;;24.60;56.90;;;;;;5096674;28;20635;-66
2021/06/12 07:59:20;;;;;;;3.10;2.60;;;24.70;57.10;;;;;;5096667;28;20529;-66
2021/06/12 08:01:45;;;;;;;4.28;2.65;;;24.70;57.00;;;;;;5095620;28;20248;-67
2021/06/12 08:04:11;;;;;;;2.67;2.47;;;24.70;56.90;;;;;;5097140;28;20548;-67
2021/06/12 08:06:37;;;;;;;3.65;2.72;;;24.70;56.80;;;;;;5096781;28;20530;-67
2021/06/12 08:09:03;;;;;;;3.70;2.63;;;24.80;56.80;;;;;;5096163;28;20223;-67
2021/06/12 08:11:29;;;;;;;3.92;2.63;;;24.80;56.80;;;;;;5096523;28;20178;-66
2021/06/12 08:13:54;;;;;;;2.53;2.33;;;24.80;56.80;;;;;;5096287;28;20540;-66
2021/06/12 08:16:20;;;;;;;4.25;2.70;;;24.80;56.70;;;;;;5095957;28;20643;-68
2021/06/12 08:18:45;;;;;;;2.63;2.40;;;24.80;56.60;;;;;;5095884;28;20275;-65
2021/06/12 08:21:11;;;;;;;4.05;2.90;;;24.90;56.60;;;;;;5096502;28;20254;-64
2021/06/12 08:23:37;;;;;;;2.80;2.60;;;24.90;56.60;;;;;;5095426;28;20679;-64
2021/06/12 08:26:03;;;;;;;3.45;2.50;;;24.90;56.60;;;;;;5096200;28;20181;-64
2021/06/12 08:28:28;;;;;;;3.28;2.50;;;24.90;56.40;;;;;;5096096;28;20173;-64
2021/06/12 08:30:54;;;;;;;2.60;2.40;;;24.90;56.30;;;;;;5095073;28;20178;-64
2021/06/12 08:33:21;;;;;;;2.72;2.25;;;24.90;56.20;;;;;;5078134;28;20632;-65
2021/06/12 08:35:46;;;;;;;3.53;2.72;;;24.90;56.10;;;;;;5095098;28;20178;-65
2021/06/12 08:38:12;;;;;;;2.78;2.58;;;24.90;56.10;;;;;;5096207;28;20176;-64
2021/06/12 08:40:41;;;;;;;3.13;2.38;;;24.90;56.10;;;;;;5095907;28;20216;-64
2021/06/12 08:43:09;;;;;;;3.70;2.50;;;24.90;56.00;;;;;;5095194;28;20182;-64
2021/06/12 08:45:35;;;;;;;2.50;2.30;;;25.00;55.80;;;;;;5095753;28;20173;-64
2021/06/12 08:48:01;;;;;;;2.88;2.35;;;25.00;55.70;;;;;;5095682;28;20235;-64
2021/06/12 08:50:28;;;;;;;3.03;2.22;;;25.00;55.70;;;;;;5094740;28;20536;-65
2021/06/12 08:52:54;;;;;;;2.58;2.33;;;25.10;55.60;;;;;;5094842;28;20589;-65
2021/06/12 08:55:20;;;;;;;2.38;2.05;;;25.10;55.50;;;;;;5095706;28;20212;-64
2021/06/12 08:57:46;;;;;;;2.95;2.30;;;25.10;55.30;;;;;;5094549;28;20209;-64
2021/06/12 09:00:12;;;;;;;2.63;2.35;;;25.10;55.40;;;;;;5095775;28;20174;-64
2021/06/12 09:03:07;;;;;;;3.63;2.15;;;25.10;55.50;;;;;;5095122;28;20243;-65
2021/06/12 09:05:51;;;;;;;3.35;2.67;;;25.00;55.50;;;;;;5094653;28;20182;-67
2021/06/12 09:08:21;;;;;;;2.40;2.20;;;25.00;54.50;;;;;;5095498;28;20182;-66
2021/06/12 09:10:48;;;;;;;4.75;2.90;;;24.80;53.60;;;;;;5095081;28;20256;-66
2021/06/12 09:13:14;;;;;;;3.60;2.63;;;24.80;51.20;;;;;;5094803;28;20178;-66
2021/06/12 09:15:40;;;;;;;5.35;2.75;;;24.70;51.10;;;;;;5095128;28;20181;-66
2021/06/12 09:18:06;;;;;;;4.03;2.80;;;24.70;51.60;;;;;;5094202;28;20706;-66
2021/06/12 09:20:31;;;;;;;5.50;2.72;;;24.80;51.70;;;;;;5095101;28;20223;-66
2021/06/12 09:23:10;;;;;;;5.97;3.30;;;24.80;52.10;;;;;;5095085;28;20232;-65
2021/06/12 09:25:43;;;;;;;4.60;2.78;;;24.90;51.40;;;;;;5092064;28;20189;-65
2021/06/12 09:28:09;;;;;;;5.25;2.50;;;24.90;51.30;;;;;;5094854;28;20655;-65
2021/06/12 09:30:35;;;;;;;3.90;2.90;;;24.90;51.50;;;;;;5094850;28;20178;-65
2021/06/12 09:33:00;;;;;;;5.55;2.90;;;24.90;51.50;;;;;;5093727;28;20695;-65
2021/06/12 09:35:36;;;;;;;3.35;2.70;;;24.90;50.50;;;;;;5074799;28;20273;-66
2021/06/12 09:38:01;;;;;;;4.57;2.65;;;25.00;50.20;;;;;;5074664;28;20188;-65
2021/06/12 09:40:31;;;;;;;5.15;2.75;;;24.90;50.40;;;;;;5056191;28;20174;-65
2021/06/12 09:42:58;;;;;;;4.72;2.83;;;24.90;50.70;;;;;;5086749;28;20202;-65
2021/06/12 09:45:28;;;;;;;2.50;2.30;;;24.80;50.70;;;;;;5094992;28;20176;-64
2021/06/12 09:48:09;;;;;;;4.18;3.20;;;24.70;49.80;;;;;;5092824;28;20210;-65
2021/06/12 09:50:35;;;;;;;4.95;2.83;;;24.80;50.50;;;;;;5094309;28;20264;-64
2021/06/12 09:53:13;;;;;;;5.35;2.55;;;24.80;50.10;;;;;;5091532;28;20261;-65
2021/06/12 09:55:38;;;;;;;3.47;2.33;;;24.80;50.40;;;;;;5094293;28;20582;-64
2021/06/12 09:58:06;;;;;;;4.32;2.60;;;24.80;50.20;;;;;;5094248;28;20185;-64
2021/06/12 10:00:31;;;;;;;4.43;2.65;;;24.80;49.90;;;;;;5093218;28;20726;-65
2021/06/12 10:02:57;;;;;;;3.25;2.30;;;24.80;49.80;;;;;;5094349;28;20296;-65
2021/06/12 10:05:25;;;;;;;5.32;2.88;;;24.90;49.60;;;;;;5094432;28;20576;-65
2021/06/12 10:07:50;;;;;;;2.58;2.38;;;24.90;50.20;;;;;;5093381;28;20182;-65
2021/06/12 10:10:16;;;;;;;6.28;2.83;;;25.00;49.40;;;;;;5076125;28;20231;-64
2021/06/12 10:12:42;;;;;;;3.85;2.35;;;25.00;49.30;;;;;;5093902;28;20181;-64
2021/06/12 10:15:09;;;;;;;4.95;2.80;;;25.00;48.70;;;;;;5093349;28;20169;-64
2021/06/12 10:17:55;;;;;;;4.47;3.10;;;24.90;49.00;;;;;;5093861;28;20235;-65
2021/06/12 10:20:22;;;;;;;3.72;2.63;;;24.90;49.00;;;;;;5075552;28;20185;-64
2021/06/12 10:22:50;;;;;;;3.47;2.75;;;24.90;49.40;;;;;;5092897;28;20217;-64
2021/06/12 10:25:16;;;;;;;5.13;2.92;;;24.80;49.60;;;;;;5093839;28;20170;-64
2021/06/12 10:27:42;;;;;;;4.03;2.22;;;24.80;49.30;;;;;;5093633;28;20185;-64
2021/06/12 10:30:09;;;;;;;5.18;2.78;;;24.80;49.50;;;;;;5092951;28;20195;-64
2021/06/12 10:32:34;;;;;;;2.72;2.42;;;24.80;49.50;;;;;;5075579;28;20203;-64
2021/06/12 10:35:03;;;;;;;3.00;2.50;;;24.90;49.50;;;;;;5075640;28;20170;-65
2021/06/12 10:37:49;;;;;;;4.18;2.70;;;24.80;49.70;;;;;;5093083;28;20170;-65
2021/06/12 10:40:15;;;;;;;5.13;2.90;;;24.80;49.40;;;;;;5093580;28;20181;-65
2021/06/12 10:42:40;;;;;;;6.18;3.15;;;24.80;48.80;;;;;;5092496;28;20864;-65
2021/06/12 10:45:11;;;;;;;5.18;2.83;;;24.80;49.20;;;;;;5093529;28;20223;-65
2021/06/12 10:47:41;;;;;;;4.90;2.47;;;24.90;49.00;;;;;;5093414;28;20257;-65
2021/06/12 10:50:25;;;;;;;5.05;2.30;;;24.90;48.80;;;;;;5092792;28;20200;-65
2021/06/12 10:52:54;;;;;;;4.63;2.90;;;25.00;48.80;;;;;;5093260;28;20181;-64
2021/06/12 10:55:42;;;;;;;3.80;2.20;;;25.00;48.50;;;;;;5093520;28;20184;-64
2021/06/12 10:58:29;;;;;;;4.53;2.60;;;25.00;49.10;;;;;;5092891;28;20204;-65
2021/06/12 11:01:07;;;;;;;3.60;2.28;;;25.00;48.70;;;;;;5093102;28;20632;-65
2021/06/12 11:06:53;;;;;;;2.90;2.42;;;25.00;48.60;;;;;;5093004;28;20166;-66
2021/06/12 11:09:27;;;;;;;3.95;2.38;;;25.00;48.70;;;;;;5093336;28;20209;-65
2021/06/12 11:11:54;;;;;;;2.60;2.00;;;25.00;48.40;;;;;;5092288;28;20226;-65
2021/06/12 11:14:22;;;;;;;3.63;1.90;;;25.00;48.50;;;;;;5092688;28;20170;-64
2021/06/12 11:17:14;;;;;;;3.60;2.60;;;25.00;48.30;;;;;;5092983;28;20201;-64
2021/06/12 11:19:43;;;;;;;3.92;2.40;;;25.00;48.70;;;;;;5091900;28;20226;-67
2021/06/12 11:22:28;;;;;;;3.55;2.30;;;25.10;48.60;;;;;;5092951;28;20684;-64
2021/06/12 11:24:56;;;;;;;3.60;2.50;;;25.10;48.40;;;;;;5092103;28;20185;-64
2021/06/12 11:27:30;;;;;;;5.25;2.10;;;25.10;48.40;;;;;;5093022;28;20209;-64
2021/06/12 11:30:14;;;;;;;3.85;2.00;;;25.20;48.50;;;;;;5092900;28;20177;-65
2021/06/12 11:32:41;;;;;;;4.43;2.35;;;25.30;48.60;;;;;;5092077;28;20175;-66
2021/06/12 11:35:06;;;;;;;3.97;2.03;;;25.20;48.90;;;;;;5093068;28;20575;-64
2021/06/12 11:37:32;;;;;;;4.65;2.20;;;25.30;49.20;;;;;;5092501;28;20177;-64
2021/06/12 11:39:59;;;;;;;3.25;2.20;;;25.20;49.40;;;;;;5092203;28;20224;-64
2021/06/12 11:42:44;;;;;;;3.25;2.08;;;25.30;49.60;;;;;;5092017;28;20693;-64
2021/06/12 11:45:31;;;;;;;3.85;2.40;;;25.30;49.60;;;;;;5092855;28;20213;-63
2021/06/12 11:48:18;;;;;;;2.65;2.28;;;25.30;49.60;;;;;;5092148;28;20654;-63
2021/06/12 11:50:44;;;;;;;5.13;2.20;;;25.30;49.70;;;;;;5092656;28;20201;-64
2021/06/12 11:53:14;;;;;;;2.50;1.88;;;25.20;49.80;;;;;;5092245;28;20571;-63
2021/06/12 11:55:40;;;;;;;3.78;2.25;;;25.30;49.90;;;;;;5092587;28;20178;-62
2021/06/12 11:58:05;;;;;;;4.07;2.00;;;25.40;50.10;;;;;;5092040;28;20268;-62
2021/06/12 12:00:32;;;;;;;3.55;2.20;;;25.40;50.10;;;;;;5091667;28;20235;-63
2021/06/12 12:02:59;;;;;;;4.35;2.05;;;25.40;50.10;;;;;;5092634;28;20213;-64
2021/06/12 12:05:29;;;;;;;3.00;2.00;;;25.50;50.10;;;;;;5092865;28;20533;-65
2021/06/12 12:07:54;;;;;;;4.60;2.58;;;25.50;50.10;;;;;;5074513;28;20566;-64
2021/06/12 12:10:26;;;;;;;3.42;1.70;;;25.50;50.10;;;;;;5074472;28;20166;-64
2021/06/12 12:12:52;;;;;;;4.38;2.03;;;25.50;50.30;;;;;;5092275;28;20196;-63
2021/06/12 12:15:34;;;;;;;3.65;2.30;;;25.40;50.30;;;;;;5091930;28;20627;-63
2021/06/12 12:18:10;;;;;;;3.45;2.25;;;25.50;50.30;;;;;;5074169;28;20763;-63
2021/06/12 12:20:40;;;;;;;2.50;2.03;;;25.50;50.30;;;;;;5092452;28;20186;-63
2021/06/12 12:23:25;;;;;;;2.28;1.73;;;25.50;50.10;;;;;;5091872;28;20259;-63
2021/06/12 12:25:54;;;;;;;3.45;1.75;;;25.60;50.20;;;;;;5092331;28;20217;-63
2021/06/12 12:28:21;;;;;;;2.30;1.90;;;25.60;50.20;;;;;;5077278;28;20170;-63
2021/06/12 12:30:49;;;;;;;2.60;1.88;;;25.60;50.20;;;;;;5095983;28;20264;-64
2021/06/12 12:33:19;;;;;;;3.33;2.00;;;25.60;50.20;;;;;;5096099;28;20170;-66
2021/06/12 12:35:45;;;;;;;5.85;1.90;;;25.70;50.10;;;;;;5095088;28;20185;-64
2021/06/12 12:38:12;;;;;;;3.08;1.98;;;25.70;50.10;;;;;;5095976;28;20219;-64
2021/06/12 12:40:38;;;;;;;4.68;2.20;;;25.70;50.10;;;;;;5095619;28;20169;-64
2021/06/12 12:43:04;;;;;;;4.93;2.22;;;25.70;50.00;;;;;;5095263;28;20220;-63
2021/06/12 12:45:29;;;;;;;4.63;1.70;;;25.70;50.00;;;;;;5095802;28;20632;-64
2021/06/12 12:47:55;;;;;;;4.00;1.73;;;25.70;50.60;;;;;;5094427;28;20184;-64
2021/06/12 12:50:20;;;;;;;4.55;2.10;;;25.70;50.00;;;;;;5095057;28;20208;-64
2021/06/12 12:52:46;;;;;;;4.65;1.65;;;25.80;49.90;;;;;;5095461;28;20178;-65
2021/06/12 12:55:11;;;;;;;3.22;1.77;;;25.80;49.90;;;;;;5077351;28;20659;-63